Flugplatz Rerik-Zweedorf

Für EDCR sind keine METAR/TAF Berichte vorhanden.
Es werden die Flugwettermeldungen vom Flugplatz Rostock-Laage Airport in 44 km Entfernung angezeigt.

Bericht für ETNL

vom 31.05. um 09:20 UTC

Wind 12 kt aus 40°

Sichtweite 10 km oder mehr

gering bewölkt in 4000 ft

aufgebrochene Bewölkung in 36000 ft

Temperatur 18.0°C

Taupunkt 7.0°C

Luftfeuchtigkeit 49%

Luftdruck 1024 hPa

ETNL 310920Z 04012KT 9999 FEW040 BKN360 18/07 Q1024 BLU+

Prognose für ETNL

vom 31.05. um 04:00 UTC

Zwischen 05:00 UTC und 08:00 UTC

Wind 8 kt aus 20°

Sichtweite 10 km oder mehr

keine signifikanten Wettererscheinungen

aufgebrochene Bewölkung in 13000 ft

aufgebrochene Bewölkung in 23000 ft


Zwischen 08:00 und 10:00 UTC übergehend zu

Wind 15 kt aus 30° in Böen 25 kt

Sichtweite 10 km oder mehr

keine signifikanten Wettererscheinungen

aufgelockert bewölkt in 5000 ft

aufgebrochene Bewölkung in 30000 ft

TAF ETNL 310400Z 3105/3117 02008KT 9999 NSW BKN130 BKN230 BECMG 3108/3110 03015G25KT 9999 NSW SCT050 BKN300 BY ETGL
Impressum